Rock Springs, Wisconsin
Current Conditions -  °F | °C
As of 6:15 PM on Friday 19 Dec 2014 (Local Time) from KC35 Reporting Station
Overcast Overcast  
Wind Chill: 25°   Ceiling: 3100
Heat Index: 25°   Visibility: 10mi
Dew Point: 21°   Wind: 3mph
Humidity: 84%   Direction: 130°SE
Pressure: 30.28"   Gusts: NA
Location:  43.49°N, 89.92°W
Report Text: KC35 200015Z AUTO 13003KT 10SM OVC031 M04/M06 A3028 RMK AO2 T10371061
Loading
Personal Weather Stations






























Interactive Weather Map New forecast layout! Learn more

10-Day Weather Forecast

Advertisements
Track Severe Weather on mobile